KBBW/BBW METAR and TAF weather

Enter ICAO airport designator
Station Type Date Time Source
KBBW METAR 2021/01/20 22:53 UTC NOAA

KBBW 202253Z AUTO 02010KT 10SM CLR 11/M08 A2989 RMK AO2 SLP131 T01061083


Station Type Date Time Source
KBBW Decoded METAR 2021/01/20 22:53 UTC NOAA

BROKEN BOW MUNICIPAL AIRPORT, NE, United States (KBBW) 41-26N 099-38W
Jan 20, 2021 - 05:53 PM EST / 2021.01.20 2253 UTC
Wind: from the NNE (020 degrees) at 12 MPH (10 KT):0
Visibility: 10 mile(s):0
Sky conditions: clear
Temperature: 51.1 F (10.6 C)
Dew Point: 17.1 F (-8.3 C)
Relative Humidity: 25%
Pressure (altimeter): 29.89 in. Hg (1012 hPa)
ob: KBBW 202253Z AUTO 02010KT 10SM CLR 11/M08 A2989 RMK AO2 SLP131 T01061083
cycle: 23

Station Type Date Time Source
KBBW TAF UTC NOAA

Error!

Example: see airport list